• Join FlightAware (Why Join?)
  • Login
  • US Flag 
10:05AM EDT


 

Airport Tracker/Info


-or-


 

Live Flight TrackerFlight Track Log ✈ EJA583 ✈ 06-Nov-2013 ✈ KFRG - KOPF

Flight Track Log - Related Links

Times and Time Zones

All times are in EST time to prevent confusion due to time zone crossing. See the EJA583 flight status page for this flight to view local times or setup timezone preferences in your user account.

Time Position Orientation Groundspeed Altitude Reporting Facility
EST Latitude Longitude Course Direction KTS MPH feet Rate Location/Type
09:15AM 40.7000 -73.4167 270° West 179 206 1,500  Level New York TRACON
09:16AM 40.6500 -73.4500 207° Southwest 215 247 2,100 1,080 Climbing New York TRACON
09:17AM 40.6500 -73.5333 270° West 245 282 3,700 1,680 Climbing New York TRACON
09:18AM 40.6500 -73.6167 270° West 234 269 5,500 1,860 Climbing New York TRACON
09:19AM 40.6333 -73.7167 258° West 247 284 7,500 2,280 Climbing New York TRACON
09:20AM 40.6667 -73.8000 298° West 290 334 10,100 1,800 Climbing New York TRACON
09:21AM 40.2477 -73.6826 270° West  Level Estimated
09:21AM 40.6167 -73.8667 225° Southwest 280 322 11,100  Level New York TRACON
09:22AM 40.5500 -73.9333 217° Southwest 270 311 11,100  Level New York TRACON
09:23AM 40.5000 -74.0000 225° Southwest 271 312 11,100  Level New York TRACON
09:24AM 40.4333 -74.0833 224° Southwest 325 374 11,100 360 Level New York TRACON
09:25AM 40.3833 -74.1833 237° Southwest 329 379 11,900 960 Climbing New York TRACON
09:26AM 40.3542 -74.2436 238° Southwest 331 381 12,800 1,440 Climbing New York Center
09:27AM 40.3050 -74.3608 241° Southwest 331 381 14,400 1,680 Climbing New York Center
09:28AM 40.2892 -74.4633 259° West 330 380 16,200 2,220 Climbing New York Center
09:29AM 40.2669 -74.5708 255° West 325 374 18,900 2,340 Climbing New York Center
09:30AM 40.2511 -74.6761 259° West 313 360 20,900 1,980 Climbing New York Center
09:31AM 40.2328 -74.7894 258° West 313 360 22,900 1,980 Climbing New York Center
09:32AM 40.2142 -74.8997 258° West 313 360 24,900 1,860 Climbing New York Center
09:33AM 40.1958 -75.0100 258° West 313 360 26,700 1,500 Climbing New York Center
09:34AM 40.1792 -75.1203 259° West 313 360 28,000 1,260 Climbing New York Center
09:35AM 40.1583 -75.2306 256° West 313 360 29,300 1,500 Climbing New York Center
09:36AM 40.1397 -75.3406 258° West 313 360 31,100 1,320 Climbing New York Center
09:37AM 40.0964 -75.4353 239° Southwest 313 360 32,000 240 Climbing New York Center
09:39AM 39.9489 -75.6347 226° Southwest 360 414 32,000  Level Washington Center
09:40AM 39.8803 -75.7347 228° Southwest 373 429 32,000  Level Washington Center
09:41AM 39.8156 -75.8372 231° Southwest 373 429 32,000  Level Washington Center
09:42AM 39.7486 -75.9397 230° Southwest 373 429 32,000  Level Washington Center
09:43AM 39.6856 -76.0444 232° Southwest 378 435 32,000  Level Washington Center
09:44AM 39.6206 -76.1464 230° Southwest 371 427 32,000  Level Washington Center
09:45AM 39.5578 -76.2483 231° Southwest 371 427 32,000  Level Washington Center
09:46AM 39.4903 -76.3472 229° Southwest 371 427 32,000  Level Washington Center
09:47AM 39.4292 -76.4514 233° Southwest 371 427 32,000  Level Washington Center
09:48AM 39.3639 -76.5419 227° Southwest 376 433 32,000  Level Washington Center
09:49AM 39.3006 -76.6403 230° Southwest 381 438 32,100 600 Climbing Washington Center
09:50AM 39.2497 -76.7442 238° Southwest 357 411 33,200 1,080 Climbing Washington Center
09:51AM 39.2008 -76.8478 239° Southwest 351 404 34,300 1,140 Climbing Washington Center
09:52AM 39.1517 -76.9486 238° Southwest 340 391 35,500 1,200 Climbing Washington Center
09:53AM 39.1025 -77.0494 238° Southwest 335 386 36,800 1,320 Climbing Washington Center
09:54AM 39.0556 -77.1419 237° Southwest 335 386 38,200 1,080 Climbing Washington Center
09:55AM 39.0064 -77.2372 236° Southwest 329 379 39,000 840 Climbing Washington Center
09:56AM 38.9572 -77.3319 236° Southwest 329 379 39,900 840 Climbing Washington Center
09:57AM 38.9036 -77.4269 234° Southwest 329 379 40,800 540 Climbing Washington Center
09:58AM 38.8128 -77.5019 213° Southwest 329 379 41,000 60 Climbing Washington Center
09:59AM 38.7219 -77.5767 213° Southwest 368 423 41,000  Level Washington Center
10:00AM 38.6331 -77.6514 213° Southwest 386 444 41,000  Level Washington Center
10:01AM 38.5442 -77.7258 213° Southwest 392 451 41,000  Level Washington Center
10:02AM 38.4553 -77.7975 212° Southwest 392 451 41,000  Level Washington Center
10:03AM 38.3664 -77.8692 212° Southwest 387 445 41,000  Level Washington Center
10:04AM 38.2797 -77.9378 212° Southwest 382 440 41,000  Level Washington Center
10:05AM 38.1928 -78.0092 213° Southwest 382 440 41,000  Level Washington Center
10:06AM 38.1036 -78.0828 213° Southwest 382 440 41,000  Level Washington Center
10:07AM 38.0314 -78.1411 212° Southwest 382 440 41,000  Level Washington Center
10:08AM 37.9378 -78.2325 218° Southwest 364 419 41,000  Level Washington Center
10:09AM 37.8525 -78.3111 216° Southwest 371 427 41,000  Level Washington Center
10:10AM 37.7694 -78.3869 216° Southwest 376 433 41,000  Level Washington Center
10:11AM 37.6861 -78.4678 218° Southwest 376 433 41,000  Level Washington Center
10:12AM 37.6114 -78.5386 217° Southwest 376 433 41,000  Level Washington Center
10:13AM 37.5283 -78.6139 216° Southwest 376 433 41,000  Level Washington Center
10:14AM 37.4450 -78.6917 217° Southwest 376 433 41,000  Level Washington Center
10:15AM 37.3614 -78.7719 217° Southwest 376 433 41,000  Level Washington Center
10:16AM 37.2694 -78.8542 215° Southwest 376 433 41,000  Level Washington Center
10:17AM 37.1861 -78.9342 217° Southwest 376 433 41,000  Level Washington Center
10:18AM 37.1025 -79.0111 216° Southwest 376 433 41,000  Level Washington Center
10:19AM 37.0167 -79.0881 216° Southwest 376 433 41,000  Level Washington Center
10:20AM 36.9353 -79.1647 217° Southwest 376 433 41,000  Level Washington Center
10:21AM 36.8494 -79.2414 216° Southwest 376 433 41,000  Level Washington Center
10:22AM 36.7764 -79.3106 217° Southwest 376 433 41,000  Level Washington Center
10:23AM 36.6906 -79.3892 216° Southwest 376 433 41,000  Level Washington Center
10:25AM 36.5042 -79.5578 216° Southwest 379 436 41,000  Level Atlanta Center
10:26AM 36.4092 -79.6431 216° Southwest 379 436 41,000  Level Atlanta Center
10:27AM 36.3264 -79.7197 217° Southwest 379 436 41,000  Level Atlanta Center
10:28AM 36.2414 -79.7964 216° Southwest 379 436 41,000  Level Atlanta Center
10:29AM 36.1564 -79.8728 216° Southwest 379 436 41,000  Level Atlanta Center
10:30AM 36.0794 -79.9408 216° Southwest 379 436 41,000  Level Atlanta Center
10:31AM 35.9856 -80.0022 208° Southwest 379 436 41,000  Level Atlanta Center
10:32AM 35.8850 -80.0533 202° Southwest 386 444 41,000  Level Atlanta Center
10:33AM 35.7844 -80.1042 202° Southwest 392 451 41,000  Level Atlanta Center
10:34AM 35.6714 -80.1583 201° Southwest 398 458 41,000  Level Atlanta Center
10:35AM 35.5731 -80.2139 205° Southwest 403 464 41,000  Level Atlanta Center
10:36AM 35.4703 -80.2647 202° Southwest 403 464 41,000  Level Atlanta Center
10:37AM 35.3697 -80.3153 202° Southwest 403 464 41,000  Level Atlanta Center
10:38AM 35.2669 -80.3656 202° Southwest 398 458 41,000  Level Atlanta Center
10:40AM 35.0689 -80.4656 202° Southwest 387 445 41,000  Level Jacksonville Center
10:41AM 34.9697 -80.5114 201° Southwest 392 451 41,000  Level Jacksonville Center
10:42AM 34.8664 -80.5622 202° Southwest 403 464 41,000  Level Jacksonville Center
10:43AM 34.7692 -80.6156 204° Southwest 388 447 41,000  Level Jacksonville Center
10:44AM 34.6678 -80.6636 201° Southwest 388 447 41,000  Level Jacksonville Center
10:45AM 34.5583 -80.7169 202° Southwest 407 468 41,000  Level Jacksonville Center
10:46AM 34.4589 -80.7672 203° Southwest 406 467 41,000  Level Jacksonville Center
10:47AM 34.3700 -80.8044 199° South 398 458 41,000  Level Jacksonville Center
10:48AM 34.2583 -80.8625 203° Southwest 387 445 41,000  Level Jacksonville Center
10:49AM 34.1569 -80.9125 202° Southwest 387 445 41,000  Level Jacksonville Center
10:50AM 34.0553 -80.9600 201° Southwest 397 457 41,000  Level Jacksonville Center
10:51AM 33.9517 -81.0100 202° Southwest 397 457 41,000  Level Jacksonville Center
10:52AM 33.8625 -81.0517 201° Southwest 397 457 41,000  Level Jacksonville Center
10:53AM 33.7611 -81.1014 202° Southwest 392 451 41,000  Level Jacksonville Center
10:54AM 33.6514 -81.1611 204° Southwest 392 451 41,000 -180 Level Jacksonville Center
10:55AM 33.5497 -81.2103 202° Southwest 392 451 40,700 -480 Descending Jacksonville Center
10:56AM 33.4481 -81.2594 202° Southwest 392 451 40,100 -360 Descending Jacksonville Center
10:57AM 33.3486 -81.3086 202° Southwest 392 451 40,000 -60 Descending Jacksonville Center
10:58AM 33.2511 -81.3575 203° Southwest 387 445 40,000  Level Jacksonville Center
10:59AM 33.1514 -81.4064 202° Southwest 387 445 40,000  Level Jacksonville Center
11:00AM 33.0497 -81.4578 203° Southwest 394 453 40,000  Level Jacksonville Center
11:01AM 32.9417 -81.5064 201° Southwest 404 465 40,000  Level Jacksonville Center
11:02AM 32.8381 -81.5575 203° Southwest 409 471 40,000  Level Jacksonville Center
11:03AM 32.7319 -81.6058 201° Southwest 409 471 40,000  Level Jacksonville Center
11:04AM 32.6428 -81.6517 203° Southwest 398 458 40,000  Level Jacksonville Center
11:05AM 32.5306 -81.7050 202° Southwest 398 458 40,000  Level Jacksonville Center
11:06AM 32.4286 -81.7556 203° Southwest 398 458 40,000  Level Jacksonville Center
11:07AM 32.3331 -81.8033 203° Southwest 408 470 40,000  Level Jacksonville Center
11:08AM 32.2186 -81.8564 201° Southwest 413 475 40,000  Level Jacksonville Center
11:09AM 32.1250 -81.8992 201° Southwest 413 475 40,000  Level Jacksonville Center
11:10AM 32.0106 -81.9542 202° Southwest 413 475 40,000  Level Jacksonville Center
11:11AM 31.9044 -81.9969 199° South 413 475 40,000  Level Jacksonville Center
11:12AM 31.8086 -82.0344 198° South 407 468 40,000  Level Jacksonville Center
11:13AM 31.6922 -82.0819 199° South 407 468 40,000  Level Jacksonville Center
11:14AM 31.5839 -82.1317 201° Southwest 407 468 40,000  Level Jacksonville Center
11:15AM 31.4775 -82.1692 197° South 407 468 40,000  Level Jacksonville Center
11:16AM 31.3714 -82.2161 201° Southwest 412 474 40,000  Level Jacksonville Center
11:17AM 31.2608 -82.2583 198° South 412 474 40,000  Level Jacksonville Center
11:18AM 31.1547 -82.3003 199° South 412 474 40,000  Level Jacksonville Center
11:19AM 31.0461 -82.3422 198° South 412 474 40,000  Level Jacksonville Center
11:20AM 30.9483 -82.3814 199° South 412 474 40,000  Level Jacksonville Center
11:21AM 30.8419 -82.4183 197° South 407 468 40,000  Level Jacksonville Center
11:22AM 30.7292 -82.4333 187° South 402 463 40,000  Level Jacksonville Center
11:23AM 30.6164 -82.4483 187° South 402 463 40,000  Level Jacksonville Center
11:24AM 30.5017 -82.4611 185° South 407 468 40,000  Level Jacksonville Center
11:25AM 30.3889 -82.4736 185° South 412 474 40,000  Level Jacksonville Center
11:26AM 30.2722 -82.4886 186° South 412 474 40,000  Level Jacksonville Center
11:27AM 30.1614 -82.4986 184° South 412 474 40,000  Level Jacksonville Center
11:28AM 30.0489 -82.5111 185° South 412 474 40,000  Level Jacksonville Center
11:29AM 29.9361 -82.5186 183° South 412 474 40,000  Level Jacksonville Center
11:30AM 29.8233 -82.5311 185° South 407 468 40,100 360 Climbing Jacksonville Center
11:31AM 29.7086 -82.5433 185° South 407 468 40,800 420 Climbing Jacksonville Center
11:32AM 29.5958 -82.5558 186° South 407 468 41,000 60 Climbing Jacksonville Center
11:33AM 29.4769 -82.5706 186° South 417 480 41,000  Level Jacksonville Center
11:34AM 29.3642 -82.5828 185° South 422 486 41,000  Level Jacksonville Center
11:35AM 29.2494 -82.5975 186° South 422 486 41,000  Level Jacksonville Center
11:36AM 29.1389 -82.6097 186° South 422 486 41,000  Level Jacksonville Center
11:37AM 29.0283 -82.6219 186° South 412 474 41,000  Level Jacksonville Center
11:38AM 28.9094 -82.6364 186° South 406 467 41,000  Level Jacksonville Center
11:39AM 28.8028 -82.6486 186° South 401 461 41,000  Level Jacksonville Center
11:40AM 28.6944 -82.6606 186° South 401 461 41,000  Level Jacksonville Center
11:41AM 28.6006 -82.6728 187° South 391 450 41,000  Level Jacksonville Center
11:44AM 28.2753 -82.7092 186° South 398 458 41,000  Level Miami Center
11:45AM 28.1603 -82.7197 185° South 398 458 41,000  Level Miami Center
11:46AM 28.0511 -82.7328 186° South 404 465 41,000  Level Miami Center
11:47AM 27.9508 -82.7369 182° South 410 472 41,000  Level Miami Center
11:48AM 27.8439 -82.7033 164° South 389 448 41,000  Level Miami Center
11:49AM 27.7369 -82.6625 161° South 383 441 41,000  Level Miami Center
11:50AM 27.6342 -82.6247 162° South 378 435 41,000  Level Miami Center
11:51AM 27.5314 -82.5867 162° South 384 442 41,000  Level Miami Center
11:52AM 27.4347 -82.5514 162° South 389 448 41,000  Level Miami Center
11:53AM 27.3342 -82.5092 160° South 394 453 41,000  Level Miami Center
11:54AM 27.2517 -82.4303 140° Southeast 389 448 41,000  Level Miami Center
11:55AM 27.1717 -82.3403 135° Southeast 397 457 41,000  Level Miami Center
11:56AM 27.0853 -82.2453 136° Southeast 397 457 41,000  Level Miami Center
11:57AM 27.0175 -82.1606 132° Southeast 403 464 41,000 -600 Level Miami Center
11:58AM 26.9439 -82.0639 130° Southeast 403 464 39,900 -1,320 Descending Miami Center
11:59AM 26.8700 -81.9653 130° Southeast 408 470 38,400 -1,560 Descending Miami Center
12:00PM 26.7961 -81.8689 131° Southeast 413 475 36,800 -1,860 Descending Miami Center
12:01PM 26.7225 -81.7683 129° Southeast 413 475 34,700 -2,100 Descending Miami Center
12:02PM 26.6483 -81.6722 131° Southeast 418 481 32,600 -2,880 Descending Miami Center
12:03PM 26.5703 -81.5692 130° Southeast 408 470 29,000 -3,300 Descending Miami Center
12:04PM 26.5003 -81.4783 131° Southeast 401 461 26,000 -3,000 Descending Miami Center
12:05PM 26.4381 -81.3922 129° Southeast 396 456 23,100 -3,000 Descending Miami Center
12:06PM 26.3678 -81.3014 131° Southeast 396 456 20,000 -3,180 Descending Miami Center
12:07PM 26.2936 -81.2036 130° Southeast 390 449 16,800 -3,300 Descending Miami Center
12:07PM 26.2692 -81.1775 136° Southeast 374 430 15,800 -2,940 Descending Miami Center
12:08PM 26.2272 -81.1181 128° Southeast 383 441 13,900 -3,000 Descending Miami Center
12:08PM 26.2089 -81.1011 140° Southeast 366 421 13,100 -2,940 Descending Miami Center
12:09PM 26.1689 -81.0419 127° Southeast 364 419 11,000 -2,880 Descending Miami Center
12:09PM 26.1444 -81.0133 134° Southeast 355 409 10,200 -2,700 Descending Miami Center
12:10PM 26.1192 -80.9475 113° Southeast 359 413 8,300 -2,640 Descending Miami Center
12:10PM 26.1014 -80.9192 125° Southeast 331 381 7,500 -2,040 Descending Miami Center
12:11PM 26.0658 -80.8417 117° Southeast 266 306 5,800 -1,800 Descending Miami Center
12:12PM 26.0483 -80.7947 113° Southeast 289 333 4,400 -2,340 Descending Miami Center
12:12PM 26.0344 -80.7689 121° Southeast 248 285 3,400 -1,260 Descending Miami Center
12:13PM 26.0167 -80.7269 115° Southeast 262 302 2,900 -540 Descending Miami Center
12:13PM 26.0006 -80.7031 127° Southeast 238 274 2,900 -840 Level Miami Center
12:14PM 25.9811 -80.6494 112° Southeast 245 282 2,100 -1,020 Descending Miami Center
12:14PM 25.9731 -80.6422 141° Southeast 236 272 2,000 -120 Descending Miami Center
12:15PM 25.9433 -80.5767 117° Southeast 233 268 2,000 -300 Level Miami Center
12:16PM 25.9236 -80.5253 113° Southeast 235 270 1,500 -540 Descending Miami Center
12:16PM 25.9136 -80.5133 133° Southeast 203 234 1,500 -120 Level Miami Center
12:17PM 25.9106 -80.4694 94° East 208 239 1,400  Descending Miami Center
12:17PM 25.9025 -80.4553 122° Southeast 198 228 1,500 60 Climbing Miami Center
12:18PM 25.9081 -80.3953 84° East 189 217 1,500 -240 Level Miami Center
12:19PM 25.9069 -80.3514 92° East 142 163 1,100 -540 Descending Miami Center
12:20PM 25.9100 -80.3147 85° East 112 129 500 -600 Descending Miami Center
12:22PM 25.9074 -80.2782 103° East  Level Estimated
12:29PM 25.9074 -80.2782 103° East  Level Estimated